Time;durP1;ratioP1;P1;durP2;ratioP2;P2;SDS_P1;SDS_P2;PMS_P1;PMS_P2;Temp;Humidity;BMP_temperature;BMP_pressure;BME280_temperature;BME280_humidity;BME280_pressure;Samples;Min_cycle;Max_cycle;Signal;HPM_P1;HPM_P2
2023/10/09 00:01:22;;;;;;;23.75;15.25;;;;;;;13.37;100.00;101994.78;5040760;28;20017;-47
2023/10/09 00:03:53;;;;;;;27.98;16.65;;;;;;;13.37;100.00;101997.47;5042764;28;20017;-48
2023/10/09 00:06:24;;;;;;;27.33;16.30;;;;;;;13.37;100.00;101994.78;5042575;28;20450;-46
2023/10/09 00:08:50;;;;;;;22.90;15.30;;;;;;;13.36;100.00;101985.09;5041844;28;20036;-47
2023/10/09 00:11:16;;;;;;;23.02;15.90;;;;;;;13.39;100.00;101984.91;5041224;28;20029;-47
2023/10/09 00:13:51;;;;;;;21.02;15.75;;;;;;;13.38;100.00;101983.16;5043163;28;20400;-47
2023/10/09 00:16:32;;;;;;;24.50;16.17;;;;;;;13.41;100.00;101979.44;5045543;28;20037;-50
2023/10/09 00:19:12;;;;;;;25.83;16.65;;;;;;;13.43;100.00;101961.50;5044334;28;20037;-47
2023/10/09 00:21:38;;;;;;;24.65;15.57;;;;;;;13.42;100.00;101962.47;5040469;28;20037;-47
2023/10/09 00:24:05;;;;;;;24.48;16.20;;;;;;;13.46;100.00;101975.47;5042723;28;20044;-49
2023/10/09 00:26:42;;;;;;;22.17;15.90;;;;;;;13.49;100.00;101974.44;5042051;28;20065;-47
2023/10/09 00:29:08;;;;;;;27.17;15.65;;;;;;;13.54;100.00;101974.94;5043415;28;20040;-47
2023/10/09 00:31:38;;;;;;;23.63;15.55;;;;;;;13.55;100.00;101967.78;5041163;28;20033;-47
2023/10/09 00:34:05;;;;;;;23.70;15.68;;;;;;;13.57;100.00;101957.84;5039868;28;20044;-48
2023/10/09 00:36:32;;;;;;;23.63;16.38;;;;;;;13.58;100.00;101954.22;5039574;28;20044;-47
2023/10/09 00:39:00;;;;;;;22.52;16.13;;;;;;;13.61;100.00;101946.84;5039408;28;20052;-47
2023/10/09 00:41:28;;;;;;;19.08;15.43;;;;;;;13.62;100.00;101939.69;5042824;28;20472;-47
2023/10/09 00:43:59;;;;;;;24.33;16.08;;;;;;;13.63;100.00;101944.06;5038692;28;20025;-47
2023/10/09 00:46:25;;;;;;;22.77;16.05;;;;;;;13.67;100.00;101937.53;5040432;28;20033;-47
2023/10/09 00:49:01;;;;;;;21.40;16.27;;;;;;;13.67;100.00;101935.72;5038495;28;20033;-47
2023/10/09 00:51:34;;;;;;;24.95;16.42;;;;;;;13.71;100.00;101936.34;5041473;28;20491;-47
2023/10/09 00:54:06;;;;;;;26.05;16.73;;;;;;;13.71;100.00;101941.69;5040920;28;20085;-47
2023/10/09 00:56:39;;;;;;;21.38;16.48;;;;;;;13.74;100.00;101945.94;5043162;28;20095;-47
2023/10/09 00:59:14;;;;;;;26.40;16.90;;;;;;;13.78;100.00;101958.13;5042250;28;20361;-47
2023/10/09 01:01:45;;;;;;;22.70;16.63;;;;;;;13.80;100.00;101956.19;5041033;28;20491;-47
2023/10/09 01:04:15;;;;;;;24.52;16.65;;;;;;;13.82;100.00;101951.59;5044492;28;20033;-47
2023/10/09 01:07:04;;;;;;;23.85;16.30;;;;;;;13.83;100.00;101956.81;5043063;28;20029;-49
2023/10/09 01:09:29;;;;;;;;;;;;;;;13.88;100.00;101949.31;5042967;28;20466;-47
2023/10/09 01:14:23;;;;;;;23.00;15.10;;;;;;;13.90;100.00;101948.38;5045954;28;20015;-47
2023/10/09 01:16:49;;;;;;;24.50;15.55;;;;;;;13.90;100.00;101940.34;5041721;28;20040;-47
2023/10/09 01:19:23;;;;;;;21.90;15.70;;;;;;;13.91;100.00;101945.59;5036969;28;20489;-47
2023/10/09 01:21:50;;;;;;;21.73;15.50;;;;;;;13.92;100.00;101944.59;5041412;28;20052;-47
2023/10/09 01:24:16;;;;;;;21.48;15.32;;;;;;;13.92;100.00;101947.28;5039728;28;20113;-47
2023/10/09 01:26:46;;;;;;;24.45;15.70;;;;;;;13.94;100.00;101944.50;5041119;28;20021;-47
2023/10/09 01:29:17;;;;;;;22.42;15.85;;;;;;;13.91;100.00;101947.41;5041412;28;20033;-47
2023/10/09 01:31:54;;;;;;;25.08;15.50;;;;;;;13.97;100.00;101949.59;5043789;28;20126;-47
2023/10/09 01:34:34;;;;;;;21.60;14.57;;;;;;;13.98;100.00;101952.16;5039511;28;20487;-47
2023/10/09 01:37:00;;;;;;;20.73;14.88;;;;;;;13.98;100.00;101964.69;5041394;28;20453;-47
2023/10/09 01:39:30;;;;;;;21.67;15.00;;;;;;;13.97;100.00;101957.63;5038465;28;20125;-47
2023/10/09 01:41:59;;;;;;;21.85;14.95;;;;;;;13.98;100.00;101965.53;5040698;28;20120;-47
2023/10/09 01:44:34;;;;;;;21.95;15.18;;;;;;;14.00;100.00;101952.91;5041215;28;20026;-48
2023/10/09 01:47:14;;;;;;;21.73;15.02;;;;;;;13.98;100.00;101954.00;5040822;28;20380;-47
2023/10/09 01:49:43;;;;;;;23.17;15.30;;;;;;;13.97;100.00;101945.16;5040370;28;20032;-49
2023/10/09 01:52:15;;;;;;;20.80;14.07;;;;;;;13.98;100.00;101949.50;5038184;28;20025;-47
2023/10/09 01:54:41;;;;;;;21.83;15.20;;;;;;;13.98;100.00;101943.31;5040140;28;20032;-47
2023/10/09 01:57:25;;;;;;;22.35;15.10;;;;;;;13.94;100.00;101939.16;5036859;28;20033;-47
2023/10/09 01:59:53;;;;;;;20.27;14.73;;;;;;;14.01;100.00;101940.44;5036199;28;20459;-46
2023/10/09 02:02:25;;;;;;;22.10;14.30;;;;;;;13.99;100.00;101935.19;5041095;28;20487;-47
2023/10/09 02:05:22;;;;;;;23.25;15.23;;;;;;;14.01;100.00;101943.94;5039866;28;20029;-49
2023/10/09 02:07:44;;;;;;;20.85;14.43;;;;;;;14.02;100.00;101944.78;5040037;28;20083;-48
2023/10/09 02:10:21;;;;;;;21.73;15.13;;;;;;;14.02;100.00;101944.78;5040024;28;20063;-48
2023/10/09 02:12:50;;;;;;;20.52;14.93;;;;;;;14.01;100.00;101948.44;5038568;28;20022;-47
2023/10/09 02:15:40;;;;;;;22.38;14.35;;;;;;;14.02;100.00;101943.00;5039287;28;20029;-48
2023/10/09 02:18:16;;;;;;;22.55;14.52;;;;;;;13.99;100.00;101932.53;5042721;28;20033;-48
2023/10/09 02:20:41;;;;;;;23.15;14.65;;;;;;;14.02;100.00;101934.09;5039428;28;20089;-47
2023/10/09 02:23:12;;;;;;;19.73;14.48;;;;;;;14.02;100.00;101936.75;5037934;28;20029;-48
2023/10/09 02:25:43;;;;;;;19.95;14.80;;;;;;;14.02;100.00;101929.63;5039525;28;20102;-47
2023/10/09 02:28:17;;;;;;;20.60;14.00;;;;;;;14.03;100.00;101935.81;5043109;28;20036;-47
2023/10/09 02:30:46;;;;;;;21.17;14.10;;;;;;;14.04;100.00;101935.69;5040098;28;20048;-47
2023/10/09 02:33:12;;;;;;;20.48;14.98;;;;;;;14.04;100.00;101926.84;5039401;28;20039;-48
2023/10/09 02:35:39;;;;;;;22.42;15.05;;;;;;;14.04;100.00;101914.34;5037842;28;20100;-47
2023/10/09 02:38:07;;;;;;;20.42;15.52;;;;;;;14.03;100.00;101912.63;5041401;28;20025;-49
2023/10/09 02:40:40;;;;;;;21.02;14.93;;;;;;;14.03;100.00;101915.28;5037688;28;20475;-47
2023/10/09 02:43:09;;;;;;;21.70;14.43;;;;;;;14.03;100.00;101909.09;5037739;28;20100;-49
2023/10/09 02:45:42;;;;;;;22.30;14.98;;;;;;;14.03;100.00;101895.75;5037811;28;20033;-49
2023/10/09 02:48:10;;;;;;;21.52;14.73;;;;;;;14.03;100.00;101893.91;5042517;28;20403;-47
2023/10/09 02:50:38;;;;;;;19.30;14.65;;;;;;;14.04;100.00;101900.97;5037598;28;20400;-47
2023/10/09 02:53:09;;;;;;;22.42;15.35;;;;;;;14.05;100.00;101901.81;5041858;28;20065;-48
2023/10/09 02:55:38;;;;;;;22.83;14.75;;;;;;;14.06;100.00;101906.22;5035705;28;20045;-50
2023/10/09 02:58:10;;;;;;;17.50;13.93;;;;;;;14.04;100.00;101898.31;5037595;28;20474;-47
2023/10/09 03:00:37;;;;;;;17.77;13.98;;;;;;;14.06;100.00;101901.72;5031363;28;20029;-48
2023/10/09 03:03:07;;;;;;;21.50;15.15;;;;;;;14.05;100.00;101907.16;5039919;28;20034;-48
2023/10/09 03:05:32;;;;;;;20.98;14.15;;;;;;;14.03;100.00;101904.59;5034353;28;20028;-47
2023/10/09 03:07:59;;;;;;;20.58;14.65;;;;;;;14.06;100.00;101906.22;5035172;28;20382;-47
2023/10/09 03:10:25;;;;;;;21.77;14.07;;;;;;;14.05;100.00;101915.19;5038446;28;20423;-47
2023/10/09 03:12:51;;;;;;;23.10;14.45;;;;;;;14.05;100.00;101916.06;5041195;28;20059;-48
2023/10/09 03:15:18;;;;;;;19.77;14.20;;;;;;;14.04;100.00;101909.00;5037410;28;20057;-47
2023/10/09 03:17:44;;;;;;;23.00;14.73;;;;;;;14.04;100.00;101898.31;5037860;28;20518;-47
2023/10/09 03:20:13;;;;;;;20.60;15.23;;;;;;;14.04;100.00;101892.13;5039058;28;20073;-47
2023/10/09 03:22:39;;;;;;;21.77;15.52;;;;;;;14.04;100.00;101887.63;5038071;28;20021;-47
2023/10/09 03:25:11;;;;;;;17.88;13.80;;;;;;;14.02;100.00;101888.69;5037986;28;20032;-47
2023/10/09 03:27:37;;;;;;;20.55;14.73;;;;;;;14.03;100.00;101877.03;5041769;28;20427;-47
2023/10/09 03:30:05;;;;;;;21.23;15.50;;;;;;;14.04;100.00;101882.28;5037821;28;20053;-48
2023/10/09 03:32:30;;;;;;;18.48;14.48;;;;;;;13.97;100.00;101861.47;5042754;28;20039;-47
2023/10/09 03:34:55;;;;;;;21.42;14.82;;;;;;;14.04;100.00;101878.75;5043121;28;20029;-47
2023/10/09 03:37:22;;;;;;;23.10;14.40;;;;;;;14.02;100.00;101873.53;5040218;28;20395;-47
2023/10/09 03:39:48;;;;;;;21.08;14.10;;;;;;;14.02;100.00;101864.66;5046341;28;20037;-47
2023/10/09 03:42:19;;;;;;;19.60;14.07;;;;;;;14.01;100.00;101870.97;5041434;28;20028;-47
2023/10/09 03:44:52;;;;;;;21.13;15.38;;;;;;;14.02;100.00;101870.00;5043740;28;20147;-47
2023/10/09 03:47:22;;;;;;;21.67;14.65;;;;;;;14.01;100.00;101862.97;5039217;28;20100;-47
2023/10/09 03:49:50;;;;;;;22.05;14.60;;;;;;;14.00;100.00;101874.59;5043441;28;20017;-47
2023/10/09 03:52:17;;;;;;;20.15;15.15;;;;;;;14.00;100.00;101861.25;5041566;28;20423;-48
2023/10/09 03:54:46;;;;;;;22.48;14.80;;;;;;;13.99;100.00;101864.88;5039541;28;20076;-47
2023/10/09 03:57:11;;;;;;;22.67;14.32;;;;;;;13.98;100.00;101864.03;5041454;28;20399;-47
2023/10/09 03:59:37;;;;;;;22.83;15.35;;;;;;;13.98;100.00;101857.84;5043597;28;20021;-47
2023/10/09 04:02:04;;;;;;;23.70;15.27;;;;;;;13.99;100.00;101867.53;5044706;28;20040;-48
2023/10/09 04:04:32;;;;;;;21.80;15.38;;;;;;;13.97;100.00;101861.47;5043175;28;20403;-47
2023/10/09 04:06:57;;;;;;;21.33;14.70;;;;;;;13.97;100.00;101881.03;5039583;28;20488;-46
2023/10/09 04:14:49;;;;;;;19.35;14.82;;;;;;;13.94;100.00;101875.03;5042596;28;20094;-48
2023/10/09 04:17:33;;;;;;;22.67;15.20;;;;;;;13.94;100.00;101873.25;5041852;28;20036;-47
2023/10/09 04:22:50;;;;;;;20.88;14.65;;;;;;;13.93;100.00;101857.34;5045460;28;20036;-47
2023/10/09 04:28:19;;;;;;;21.33;14.75;;;;;;;13.91;100.00;101854.78;5049875;28;20103;-49
2023/10/09 04:30:55;;;;;;;20.58;15.73;;;;;;;13.92;100.00;101843.09;5043032;28;20453;-49
2023/10/09 04:33:45;;;;;;;21.42;15.35;;;;;;;13.93;100.00;101844.81;5044132;28;20039;-47
2023/10/09 04:38:55;;;;;;;20.83;15.15;;;;;;;13.95;100.00;101893.63;5041403;28;20048;-47
2023/10/09 04:41:27;;;;;;;22.13;14.68;;;;;;;13.91;100.00;101872.63;5042046;28;20032;-47
2023/10/09 04:44:18;;;;;;;21.58;14.63;;;;;;;13.95;100.00;101884.78;5034013;28;20471;-49
2023/10/09 04:46:44;;;;;;;23.48;15.13;;;;;;;13.97;100.00;101904.19;5041138;28;20033;-47
2023/10/09 04:49:27;;;;;;;24.13;16.50;;;;;;;13.96;100.00;101887.34;5042566;28;20033;-48
2023/10/09 04:57:26;;;;;;;20.35;15.35;;;;;;;13.97;100.00;101874.81;5041597;28;20090;-47
2023/10/09 04:59:51;;;;;;;27.42;16.02;;;;;;;13.96;100.00;101868.63;5041284;28;20025;-48
2023/10/09 05:02:19;;;;;;;24.50;15.35;;;;;;;13.96;100.00;101865.13;5041793;28;20025;-47
2023/10/09 05:04:51;;;;;;;26.58;15.10;;;;;;;13.96;100.00;101873.97;5042623;28;20477;-47
2023/10/09 05:07:54;;;;;;;21.50;15.48;;;;;;;13.97;100.00;101878.38;5040897;28;20032;-47
2023/10/09 05:10:17;;;;;;;22.58;16.15;;;;;;;13.97;100.00;101875.69;5041134;28;20128;-46
2023/10/09 05:12:56;;;;;;;23.45;15.93;;;;;;;13.99;100.00;101878.22;5041013;28;20372;-47
2023/10/09 05:15:26;;;;;;;;;;;;;;;14.04;100.00;101892.97;5040895;28;20033;-47
2023/10/09 05:17:56;;;;;;;25.17;15.25;;;;;;;14.00;100.00;101891.47;5039118;28;20012;-47
2023/10/09 05:23:23;;;;;;;22.52;16.05;;;;;;;14.01;100.00;101890.50;5040756;28;20088;-47
2023/10/09 05:25:53;;;;;;;22.80;16.45;;;;;;;14.01;100.00;101887.84;5040207;28;20055;-47
2023/10/09 05:28:30;;;;;;;22.27;16.38;;;;;;;14.03;100.00;101891.25;5040377;28;20032;-47
2023/10/09 05:31:06;;;;;;;23.77;16.95;;;;;;;14.02;100.00;101886.88;5038661;28;20022;-49
2023/10/09 05:33:36;;;;;;;27.00;17.23;;;;;;;14.06;100.00;101906.22;5040470;28;20159;-47
2023/10/09 05:36:31;;;;;;;23.35;16.80;;;;;;;14.06;100.00;101915.06;5039828;28;20128;-49
2023/10/09 05:39:07;;;;;;;21.90;16.52;;;;;;;14.09;100.00;101915.78;5037889;28;20041;-47
2023/10/09 05:41:47;;;;;;;25.25;17.15;;;;;;;14.07;100.00;101918.56;5042650;28;20406;-47
2023/10/09 05:49:54;;;;;;;25.23;17.40;;;;;;;14.12;100.00;101915.56;5042534;28;20564;-47
2023/10/09 05:53:05;;;;;;;29.40;18.13;;;;;;;14.12;100.00;101905.75;5040938;28;20116;-47
2023/10/09 05:55:49;;;;;;;27.48;17.65;;;;;;;14.12;100.00;101916.44;5044872;28;20112;-48
2023/10/09 06:03:49;;;;;;;29.10;19.13;;;;;;;14.15;100.00;101942.91;5036462;28;20410;-48
2023/10/09 06:17:17;;;;;;;26.63;19.52;;;;;;;14.21;100.00;101947.81;5036471;28;20033;-48
2023/10/09 06:19:48;;;;;;;29.17;19.10;;;;;;;14.22;100.00;101936.16;5034166;28;20045;-46
2023/10/09 06:25:08;;;;;;;28.98;19.88;;;;;;;14.25;100.00;101927.91;5039752;28;20077;-46
2023/10/09 06:30:23;;;;;;;25.63;20.92;;;;;;;14.27;100.00;101926.94;5037712;28;20038;-47
2023/10/09 06:32:57;;;;;;;26.13;18.90;;;;;;;14.29;100.00;101927.66;5040302;28;20036;-47
2023/10/09 06:35:30;;;;;;;28.65;20.00;;;;;;;14.29;100.00;101933.88;5039218;28;20029;-47
2023/10/09 06:45:54;;;;;;;29.17;20.00;;;;;;;14.37;100.00;101949.31;5038560;28;20562;-49
2023/10/09 06:58:58;;;;;;;28.48;19.00;;;;;;;14.42;100.00;101920.41;5036011;28;20048;-47
2023/10/09 07:01:42;;;;;;;27.48;20.23;;;;;;;14.43;100.00;101914.13;5040938;28;20106;-48
2023/10/09 07:06:52;;;;;;;28.70;20.35;;;;;;;14.48;100.00;101903.09;5035245;28;20084;-47
2023/10/09 07:09:19;;;;;;;30.10;19.77;;;;;;;14.49;100.00;101896.75;5032223;28;20025;-46
2023/10/09 07:17:01;;;;;;;31.08;19.75;;;;;;;14.57;100.00;101872.97;5040153;28;20047;-47
2023/10/09 07:19:57;;;;;;;;;;;;;;;14.63;100.00;101864.50;5042723;28;20115;-47
2023/10/09 07:24:49;;;;;;;26.02;18.98;;;;;;;14.66;100.00;101888.34;5039971;28;20045;-46
2023/10/09 07:27:43;;;;;;;26.35;19.27;;;;;;;14.67;100.00;101882.03;5045177;28;20017;-46
2023/10/09 07:30:35;;;;;;;28.85;19.83;;;;;;;14.69;100.00;101888.09;5042824;28;20033;-46
2023/10/09 07:32:54;;;;;;;31.08;19.60;;;;;;;14.72;100.00;101913.72;5044677;28;20037;-48
2023/10/09 07:35:46;;;;;;;26.23;18.83;;;;;;;14.72;100.00;101932.44;5043486;28;20029;-48
2023/10/09 07:38:05;;;;;;;25.67;19.48;;;;;;;14.74;100.00;101944.75;5040232;28;20037;-46
2023/10/09 07:40:51;;;;;;;24.10;19.23;;;;;;;14.75;100.00;101967.00;5040354;28;20063;-46
2023/10/09 07:43:17;;;;;;;28.15;19.30;;;;;;;14.76;100.00;101966.03;5040732;28;20037;-46
2023/10/09 07:48:14;;;;;;;26.98;18.83;;;;;;;14.78;100.00;101977.47;5041873;28;20040;-47
2023/10/09 07:50:48;;;;;;;25.83;18.88;;;;;;;14.80;100.00;101976.38;5042411;28;20535;-46
2023/10/09 07:53:14;;;;;;;33.10;19.38;;;;;;;14.83;100.00;101964.59;5038295;28;20487;-46
2023/10/09 07:55:45;;;;;;;27.52;19.85;;;;;;;14.84;100.00;101944.91;5038108;28;20067;-46
2023/10/09 07:58:11;;;;;;;29.67;20.05;;;;;;;14.86;100.00;101928.72;5040241;28;20136;-46
2023/10/09 08:01:05;;;;;;;24.30;18.48;;;;;;;14.88;100.00;101927.63;5044537;28;20029;-46
2023/10/09 08:03:29;;;;;;;27.60;19.10;;;;;;;14.89;100.00;101931.16;5040889;28;20144;-46
2023/10/09 08:06:06;;;;;;;32.15;19.63;;;;;;;14.87;100.00;101927.75;5041395;28;20040;-45
2023/10/09 08:14:00;;;;;;;26.95;19.10;;;;;;;14.99;100.00;101942.84;5034591;28;20068;-45
2023/10/09 08:16:36;;;;;;;30.83;19.52;;;;;;;15.02;100.00;101944.44;5036448;28;20441;-45
2023/10/09 08:22:17;;;;;;;28.70;18.90;;;;;;;15.10;100.00;101948.19;5036133;28;20103;-46
2023/10/09 08:24:41;;;;;;;27.90;19.65;;;;;;;15.16;100.00;101953.09;5036839;28;20029;-47
2023/10/09 08:30:11;;;;;;;30.45;19.95;;;;;;;15.28;100.00;101947.75;5037448;28;20049;-45
2023/10/09 08:32:40;;;;;;;25.92;19.48;;;;;;;15.36;100.00;101943.47;5039145;28;20131;-48
2023/10/09 08:37:51;;;;;;;28.35;19.67;;;;;;;15.51;100.00;101928.00;5040224;28;20095;-45
2023/10/09 08:40:21;;;;;;;28.17;19.05;;;;;;;15.57;100.00;101929.38;5040374;28;20017;-46
2023/10/09 08:42:52;;;;;;;28.60;18.73;;;;;;;15.63;100.00;101923.50;5040557;28;20064;-45
2023/10/09 08:45:24;;;;;;;28.88;20.17;;;;;;;15.70;100.00;101931.88;5039919;28;20029;-46
2023/10/09 08:47:54;;;;;;;31.75;19.75;;;;;;;15.75;100.00;101932.34;5041512;28;20112;-45
2023/10/09 08:50:19;;;;;;;30.27;19.50;;;;;;;15.80;100.00;101930.19;5038099;28;20017;-46
2023/10/09 08:52:46;;;;;;;26.60;19.50;;;;;;;15.86;100.00;101932.38;5040789;28;20029;-46
2023/10/09 08:55:12;;;;;;;29.40;20.20;;;;;;;15.92;100.00;101923.00;5035247;28;20033;-46
2023/10/09 08:57:40;;;;;;;27.58;19.65;;;;;;;15.99;100.00;101916.16;5039817;28;20032;-45
2023/10/09 09:00:09;;;;;;;26.35;18.65;;;;;;;16.06;100.00;101920.00;5037469;28;20112;-45
2023/10/09 09:02:36;;;;;;;24.52;19.15;;;;;;;16.15;100.00;101930.94;5034788;28;20501;-46
2023/10/09 09:05:16;;;;;;;24.40;19.20;;;;;;;16.20;100.00;101929.56;5034617;28;20028;-45
2023/10/09 09:07:42;;;;;;;30.98;21.13;;;;;;;16.30;100.00;101929.66;5038420;28;20530;-47
2023/10/09 09:10:17;;;;;;;30.08;19.45;;;;;;;16.36;100.00;101928.31;5044768;28;20379;-47
2023/10/09 09:12:43;;;;;;;26.88;18.65;;;;;;;16.45;100.00;101928.41;5039490;28;20471;-48
2023/10/09 09:15:19;;;;;;;35.33;21.52;;;;;;;16.56;100.00;101940.03;5036684;28;20076;-47
2023/10/09 09:17:45;;;;;;;29.55;18.98;;;;;;;16.67;100.00;101937.31;5039974;28;20029;-49
2023/10/09 09:20:28;;;;;;;27.65;19.33;;;;;;;16.78;100.00;101949.78;5029700;28;20037;-47
2023/10/09 09:22:57;;;;;;;26.65;18.27;;;;;;;16.90;100.00;101955.97;5044911;28;20439;-46
2023/10/09 09:25:31;;;;;;;28.15;19.27;;;;;;;17.00;100.00;101964.91;5034860;28;20025;-46
2023/10/09 09:27:57;;;;;;;27.77;20.08;;;;;;;17.10;100.00;101975.72;5035347;28;20040;-46
2023/10/09 09:30:31;;;;;;;23.85;18.48;;;;;;;17.18;100.00;101967.84;5036616;28;20017;-47
2023/10/09 09:35:57;;;;;;;26.70;19.33;;;;;;;17.32;100.00;101975.56;5039817;28;20033;-46
2023/10/09 09:38:23;;;;;;;23.70;17.67;;;;;;;17.43;100.00;101979.97;5039475;28;20041;-46
2023/10/09 09:40:53;;;;;;;23.90;18.73;;;;;;;17.50;100.00;101986.53;5039958;28;20031;-45
2023/10/09 09:43:22;;;;;;;28.00;18.45;;;;;;;17.55;100.00;101978.03;5038313;28;20029;-47
2023/10/09 09:45:49;;;;;;;24.60;19.60;;;;;;;17.66;100.00;101990.53;5042087;28;20021;-46
2023/10/09 09:48:16;;;;;;;26.88;18.95;;;;;;;17.70;100.00;101995.50;5036164;28;20295;-46
2023/10/09 09:50:46;;;;;;;22.45;18.05;;;;;;;17.77;100.00;102001.19;5039898;28;20079;-46
2023/10/09 09:53:18;;;;;;;29.88;19.20;;;;;;;17.84;100.00;102004.19;5036795;28;20063;-46
2023/10/09 09:55:59;;;;;;;27.40;19.45;;;;;;;17.90;100.00;102001.81;5041266;28;20047;-46
2023/10/09 09:58:32;;;;;;;30.35;20.23;;;;;;;17.97;100.00;101998.56;5038778;28;20025;-47
2023/10/09 10:01:08;;;;;;;26.85;19.90;;;;;;;17.97;100.00;101987.81;5038886;28;20074;-46
2023/10/09 10:03:43;;;;;;;25.38;20.85;;;;;;;18.07;100.00;101994.94;5036711;28;20041;-46
2023/10/09 10:06:12;;;;;;;29.63;20.30;;;;;;;18.13;100.00;102001.56;5036524;28;20488;-48
2023/10/09 10:08:39;;;;;;;28.92;21.40;;;;;;;18.21;100.00;102003.56;5037240;28;20029;-46
2023/10/09 10:11:05;;;;;;;26.23;20.42;;;;;;;18.25;100.00;102004.97;5041547;28;20508;-46
2023/10/09 10:13:56;;;;;;;28.92;21.13;;;;;;;18.35;100.00;102007.69;5037064;28;20407;-46
2023/10/09 10:16:21;;;;;;;29.52;20.92;;;;;;;18.36;100.00;102004.88;5039625;28;20111;-46
2023/10/09 10:19:39;;;;;;;27.00;21.17;;;;;;;18.40;100.00;102010.81;5037476;28;20519;-46
2023/10/09 10:21:48;;;;;;;27.90;21.15;;;;;;;18.50;100.00;101995.50;5031178;28;20033;-46
2023/10/09 10:24:29;;;;;;;31.30;21.58;;;;;;;18.54;100.00;102012.25;5037546;28;20033;-47
2023/10/09 10:27:09;;;;;;;33.88;22.58;;;;;;;18.60;100.00;102004.47;5042463;28;20490;-46
2023/10/09 10:29:35;;;;;;;29.65;22.05;;;;;;;18.62;99.51;101998.94;5027740;28;20342;-46
2023/10/09 10:32:06;;;;;;;29.48;21.75;;;;;;;18.62;98.95;102002.47;5035106;28;20025;-47
2023/10/09 10:35:06;;;;;;;27.90;22.45;;;;;;;18.73;100.00;102006.84;5034538;28;20487;-46
2023/10/09 10:37:44;;;;;;;31.48;21.88;;;;;;;18.78;99.14;102009.09;5038260;28;20418;-47
2023/10/09 10:40:38;;;;;;;29.80;21.42;;;;;;;18.84;99.12;102001.34;5038661;28;20116;-46
2023/10/09 10:43:13;;;;;;;30.40;22.40;;;;;;;18.87;97.85;102002.91;5035201;28;20062;-47
2023/10/09 10:45:43;;;;;;;36.63;23.23;;;;;;;18.93;97.88;101996.94;5036514;28;20034;-47
2023/10/09 10:48:22;;;;;;;33.58;22.80;;;;;;;18.99;98.08;101982.06;5032311;28;20037;-47
2023/10/09 10:50:57;;;;;;;31.50;22.73;;;;;;;19.08;97.81;101986.56;5038456;28;20048;-46
2023/10/09 10:53:27;;;;;;;29.20;22.90;;;;;;;19.17;97.54;101991.06;5033994;28;20033;-47
2023/10/09 11:01:50;;;;;;;27.42;22.08;;;;;;;19.29;96.01;101994.44;5037843;28;20044;-47
2023/10/09 11:04:24;;;;;;;27.92;21.52;;;;;;;19.33;96.53;101986.91;5038485;28;20037;-46
2023/10/09 11:06:51;;;;;;;26.98;21.52;;;;;;;19.47;96.86;102001.75;5036241;28;20033;-46
2023/10/09 11:09:23;;;;;;;28.70;21.65;;;;;;;19.52;96.07;101999.47;5034226;28;20052;-46
2023/10/09 11:11:55;;;;;;;27.20;20.15;;;;;;;19.57;95.51;102006.09;5038666;28;20029;-46
2023/10/09 11:14:23;;;;;;;30.88;21.70;;;;;;;19.58;95.67;102004.25;5039179;28;20026;-47
2023/10/09 11:16:50;;;;;;;27.95;21.70;;;;;;;19.71;96.25;102009.31;5035926;28;20029;-46
2023/10/09 11:19:31;;;;;;;32.38;21.83;;;;;;;19.71;95.26;102007.44;5034952;28;20033;-46
2023/10/09 11:24:34;;;;;;;25.58;19.23;;;;;;;19.80;94.35;102002.19;5036712;28;20486;-47
2023/10/09 11:27:05;;;;;;;28.63;19.13;;;;;;;19.86;95.38;101998.91;5036324;28;20032;-47
2023/10/09 11:32:11;;;;;;;24.20;17.85;;;;;;;19.96;93.10;101992.44;5036988;28;20082;-46
2023/10/09 11:34:37;;;;;;;22.33;16.85;;;;;;;20.03;92.99;101995.38;5039625;28;20542;-46
2023/10/09 11:39:55;;;;;;;25.83;15.45;;;;;;;20.06;91.15;101987.00;5032322;28;20068;-46
2023/10/09 11:42:38;;;;;;;23.65;15.20;;;;;;;20.15;93.10;101990.63;5033239;28;20068;-47
2023/10/09 11:45:19;;;;;;;26.02;14.95;;;;;;;20.26;92.85;101985.00;5033974;28;20120;-46
2023/10/09 11:48:05;;;;;;;26.98;14.88;;;;;;;20.28;90.48;101988.41;5035867;28;20060;-46
2023/10/09 11:51:21;;;;;;;23.25;14.63;;;;;;;20.40;91.91;101993.56;5028946;28;20040;-46
2023/10/09 11:55:53;;;;;;;20.52;13.68;;;;;;;20.42;89.60;101992.41;5036876;28;20053;-47
2023/10/09 11:58:23;;;;;;;20.35;13.48;;;;;;;20.47;89.07;101991.97;5039026;28;20040;-47
2023/10/09 12:01:03;;;;;;;22.00;12.27;;;;;;;20.54;88.94;101998.44;5038804;28;20034;-47
2023/10/09 12:03:29;;;;;;;21.33;13.23;;;;;;;20.54;89.16;101990.34;5040034;28;20025;-46
2023/10/09 12:06:04;;;;;;;19.52;13.45;;;;;;;20.53;88.30;101994.03;5040494;28;20499;-46
2023/10/09 12:08:31;;;;;;;17.77;11.98;;;;;;;20.59;90.95;102001.50;5043206;28;20071;-46
2023/10/09 12:10:57;;;;;;;21.33;12.02;;;;;;;20.58;88.83;101994.41;5041150;28;20033;-45
2023/10/09 12:13:23;;;;;;;19.45;12.63;;;;;;;20.63;88.55;101993.97;5043188;28;20029;-46
2023/10/09 12:15:51;;;;;;;18.35;11.95;;;;;;;20.62;89.18;101994.97;5041977;28;20096;-46
2023/10/09 12:18:18;;;;;;;18.55;11.95;;;;;;;20.67;89.29;101988.13;5038720;28;20025;-46
2023/10/09 12:20:50;;;;;;;20.52;11.82;;;;;;;20.71;87.87;101991.34;5039821;28;20045;-45
2023/10/09 12:23:16;;;;;;;18.27;10.27;;;;;;;;;;5041260;28;20026;-46
2023/10/09 12:25:44;;;;;;;16.25;10.18;;;;;;;20.69;86.42;101983.41;5031820;28;20028;-45
2023/10/09 12:28:12;;;;;;;16.33;9.55;;;;;;;20.70;86.94;101986.97;5036779;28;20029;-46
2023/10/09 12:30:39;;;;;;;16.88;9.20;;;;;;;20.72;88.55;101978.69;5036401;28;20103;-46
2023/10/09 12:33:07;;;;;;;16.38;10.15;;;;;;;20.78;88.78;101981.59;5034321;28;20099;-45
2023/10/09 12:35:36;;;;;;;16.30;9.93;;;;;;;20.79;89.75;101986.00;5039466;28;20021;-46
2023/10/09 12:38:03;;;;;;;14.95;9.57;;;;;;;20.83;88.20;101978.44;5040562;28;21016;-46
2023/10/09 12:40:30;;;;;;;16.00;8.73;;;;;;;20.82;88.33;101982.16;5021191;28;20052;-46
2023/10/09 12:42:58;;;;;;;17.55;9.85;;;;;;;20.86;88.78;101980.81;5041373;28;20439;-46
2023/10/09 12:45:32;;;;;;;16.77;9.47;;;;;;;20.85;87.67;101965.63;5034426;28;20022;-46
2023/10/09 12:47:59;;;;;;;16.33;8.93;;;;;;;20.88;86.30;101970.72;5039947;28;20064;-46
2023/10/09 12:50:27;;;;;;;16.08;9.02;;;;;;;20.87;85.76;101972.56;5039109;28;20547;-46
2023/10/09 12:53:06;;;;;;;17.10;8.05;;;;;;;20.92;85.96;101960.44;5031587;28;20083;-47
2023/10/09 12:55:34;;;;;;;16.88;8.10;;;;;;;20.95;86.05;101960.13;5038945;28;20521;-48
2023/10/09 12:58:07;;;;;;;20.08;8.25;;;;;;;20.96;85.67;101946.47;5038269;28;20028;-46
2023/10/09 13:00:54;;;;;;;14.40;8.30;;;;;;;20.99;86.83;101939.91;5032428;28;20569;-47
2023/10/09 13:03:19;;;;;;;13.30;7.45;;;;;;;20.99;85.95;101938.03;5036165;28;20029;-47
2023/10/09 13:05:54;;;;;;;17.20;7.80;;;;;;;20.98;86.61;101932.81;5037041;28;20435;-47
2023/10/09 13:08:36;;;;;;;13.07;7.90;;;;;;;21.02;87.38;101937.72;5035033;28;20044;-46
2023/10/09 13:11:11;;;;;;;13.57;7.85;;;;;;;21.09;87.40;101946.03;5039143;28;20034;-47
2023/10/09 13:13:44;;;;;;;14.25;8.43;;;;;;;21.07;87.25;101934.56;5039570;28;20029;-46
2023/10/09 13:16:23;;;;;;;14.48;8.27;;;;;;;21.12;86.32;101940.31;5032136;28;20068;-46
2023/10/09 13:18:53;;;;;;;18.20;8.52;;;;;;;21.07;85.24;101940.78;5039808;28;20508;-47
2023/10/09 13:21:26;;;;;;;15.43;8.48;;;;;;;21.08;85.81;101938.94;5038242;28;20045;-45
2023/10/09 13:23:54;;;;;;;12.90;7.65;;;;;;;21.05;85.25;101929.31;5036447;28;20143;-45